XNO75PG LIRF-LOWW
Flight info
| Callsign | XNO75PG |
|---|---|
| Flight time | 1h 40m |
| Altitude | 36000 |
| Route | SOVAN DCT AMTEL DCT GAVRA DCT LAPNA LAPNA2W |
| Aircraft | A320/M-SDE3FGHIRWY/LB1 |
Departure
| Time | 2026-05-06 19:11 |
|---|---|
| Airport | Rome–Fiumicino Leonardo da Vinci International Airport (LIRF) |
Arrival
| Time | 2026-05-06 20:51 |
|---|---|
| Airport | Vienna International Airport (LOWW) |
| Time | Latitude | Longitude | Altitude | Speed | Heading |
|---|---|---|---|---|---|
| 2026-05-06 18:44 | 41.79792 | 12.25527 | 14 ft | 0 kts | 115° |
| 2026-05-06 19:00 | 41.79795 | 12.25519 | 14 ft | 4 kts | 112° |
| 2026-05-06 19:01 | 41.79802 | 12.25485 | 14 ft | 4 kts | 89° |
| 2026-05-06 19:01 | 41.79796 | 12.25452 | 18 ft | 4 kts | 45° |
| 2026-05-06 19:01 | 41.79787 | 12.25442 | 16 ft | 0 kts | 25° |
| 2026-05-06 19:03 | 41.79789 | 12.25443 | 14 ft | 2 kts | 25° |
| 2026-05-06 19:04 | 41.79813 | 12.25458 | 14 ft | 4 kts | 25° |
| 2026-05-06 19:04 | 41.79855 | 12.25485 | 16 ft | 8 kts | 25° |
| 2026-05-06 19:04 | 41.79901 | 12.25514 | 14 ft | 7 kts | 25° |
| 2026-05-06 19:04 | 41.79912 | 12.25521 | 14 ft | 8 kts | 25° |
| 2026-05-06 19:05 | 41.79983 | 12.25565 | 15 ft | 9 kts | 25° |
| 2026-05-06 19:05 | 41.79992 | 12.25631 | 14 ft | 9 kts | 112° |
| 2026-05-06 19:05 | 41.79953 | 12.25741 | 15 ft | 16 kts | 115° |
| 2026-05-06 19:05 | 41.79948 | 12.25866 | 16 ft | 15 kts | 41° |
| 2026-05-06 19:06 | 41.80039 | 12.25927 | 15 ft | 14 kts | 24° |
| 2026-05-06 19:06 | 41.80121 | 12.25977 | 14 ft | 12 kts | 25° |
| 2026-05-06 19:06 | 41.80198 | 12.26024 | 14 ft | 15 kts | 25° |
| 2026-05-06 19:06 | 41.80288 | 12.26080 | 14 ft | 13 kts | 24° |
| 2026-05-06 19:07 | 41.80356 | 12.26146 | 15 ft | 12 kts | 56° |
| 2026-05-06 19:07 | 41.80407 | 12.26323 | 17 ft | 28 kts | 70° |
| 2026-05-06 19:07 | 41.80474 | 12.26567 | 18 ft | 28 kts | 70° |
| 2026-05-06 19:07 | 41.80542 | 12.26812 | 14 ft | 27 kts | 70° |
| 2026-05-06 19:08 | 41.80595 | 12.27000 | 15 ft | 15 kts | 68° |
| 2026-05-06 19:08 | 41.80671 | 12.27048 | 13 ft | 8 kts | 4° |
| 2026-05-06 19:08 | 41.80745 | 12.27056 | 14 ft | 12 kts | 2° |
| 2026-05-06 19:08 | 41.80823 | 12.27034 | 13 ft | 11 kts | 340° |
| 2026-05-06 19:09 | 41.80870 | 12.27012 | 13 ft | 0 kts | 340° |
| 2026-05-06 19:10 | 41.80886 | 12.27004 | 13 ft | 6 kts | 340° |
| 2026-05-06 19:10 | 41.80933 | 12.26981 | 13 ft | 9 kts | 338° |
| 2026-05-06 19:10 | 41.80946 | 12.26884 | 15 ft | 12 kts | 251° |
| 2026-05-06 19:10 | 41.80883 | 12.26655 | 14 ft | 57 kts | 249° |
| 2026-05-06 19:11 | 41.80659 | 12.25847 | 18 ft | 125 kts | 250° |
| 2026-05-06 19:11 | 41.80295 | 12.24527 | 109 ft | 168 kts | 245° |
| 2026-05-06 19:11 | 41.79905 | 12.23058 | 876 ft | 166 kts | 244° |
| 2026-05-06 19:11 | 41.79496 | 12.21609 | 1676 ft | 166 kts | 243° |
| 2026-05-06 19:12 | 41.79094 | 12.20192 | 2419 ft | 169 kts | 251° |
| 2026-05-06 19:12 | 41.79264 | 12.18523 | 2774 ft | 203 kts | 296° |
| 2026-05-06 19:12 | 41.80233 | 12.17018 | 3254 ft | 221 kts | 310° |
| 2026-05-06 19:12 | 41.81254 | 12.15471 | 4125 ft | 222 kts | 307° |
| 2026-05-06 19:13 | 41.82236 | 12.13870 | 5033 ft | 223 kts | 306° |
| 2026-05-06 19:13 | 41.83206 | 12.12245 | 5930 ft | 224 kts | 304° |
| 2026-05-06 19:13 | 41.84319 | 12.10763 | 6751 ft | 229 kts | 322° |
| 2026-05-06 19:13 | 41.85795 | 12.09769 | 7300 ft | 252 kts | 341° |
| 2026-05-06 19:14 | 41.87545 | 12.09119 | 7708 ft | 277 kts | 343° |
| 2026-05-06 19:14 | 41.89463 | 12.08421 | 8330 ft | 292 kts | 343° |
| 2026-05-06 19:14 | 41.91445 | 12.07701 | 9215 ft | 297 kts | 343° |
| 2026-05-06 19:14 | 41.93455 | 12.06966 | 10109 ft | 302 kts | 343° |
| 2026-05-06 19:15 | 41.95558 | 12.06222 | 10511 ft | 325 kts | 347° |
| 2026-05-06 19:15 | 41.97895 | 12.05890 | 10840 ft | 348 kts | 354° |
| 2026-05-06 19:15 | 42.00347 | 12.05648 | 11490 ft | 357 kts | 355° |
| 2026-05-06 19:15 | 42.02846 | 12.05414 | 12270 ft | 362 kts | 355° |
| 2026-05-06 19:16 | 42.05376 | 12.05176 | 13066 ft | 367 kts | 354° |
| 2026-05-06 19:16 | 42.07904 | 12.04933 | 13822 ft | 371 kts | 354° |
| 2026-05-06 19:16 | 42.10498 | 12.04681 | 14492 ft | 376 kts | 354° |
| 2026-05-06 19:16 | 42.13122 | 12.04427 | 15178 ft | 380 kts | 354° |
| 2026-05-06 19:17 | 42.15777 | 12.04171 | 15843 ft | 385 kts | 354° |
| 2026-05-06 19:17 | 42.18464 | 12.03876 | 16511 ft | 389 kts | 350° |
| 2026-05-06 19:17 | 42.21148 | 12.03283 | 17164 ft | 393 kts | 348° |
| 2026-05-06 19:17 | 42.23864 | 12.02666 | 17820 ft | 398 kts | 348° |
| 2026-05-06 19:18 | 42.26611 | 12.02046 | 18444 ft | 402 kts | 347° |
| 2026-05-06 19:18 | 42.29343 | 12.01433 | 19004 ft | 405 kts | 347° |
| 2026-05-06 19:18 | 42.32136 | 12.00806 | 19584 ft | 408 kts | 347° |
| 2026-05-06 19:18 | 42.34949 | 12.00175 | 20158 ft | 411 kts | 347° |
| 2026-05-06 19:19 | 42.37783 | 11.99540 | 20732 ft | 414 kts | 347° |
| 2026-05-06 19:19 | 42.40632 | 11.98899 | 21305 ft | 417 kts | 347° |
| 2026-05-06 19:19 | 42.43502 | 11.98247 | 21859 ft | 420 kts | 346° |
| 2026-05-06 19:19 | 42.46391 | 11.97592 | 22400 ft | 423 kts | 346° |
| 2026-05-06 19:20 | 42.49305 | 11.96931 | 22931 ft | 426 kts | 346° |
| 2026-05-06 19:20 | 42.52240 | 11.96263 | 23455 ft | 429 kts | 346° |
| 2026-05-06 19:20 | 42.55154 | 11.95602 | 23892 ft | 432 kts | 345° |
| 2026-05-06 19:20 | 42.58131 | 11.94926 | 24309 ft | 435 kts | 345° |
| 2026-05-06 19:21 | 42.61129 | 11.94246 | 24716 ft | 439 kts | 345° |
| 2026-05-06 19:21 | 42.64149 | 11.93561 | 25124 ft | 442 kts | 345° |
| 2026-05-06 19:21 | 42.67188 | 11.92871 | 25528 ft | 445 kts | 345° |
| 2026-05-06 19:21 | 42.70251 | 11.92176 | 25931 ft | 448 kts | 345° |
| 2026-05-06 19:22 | 42.73331 | 11.91477 | 26322 ft | 450 kts | 345° |
| 2026-05-06 19:22 | 42.76434 | 11.90770 | 26703 ft | 454 kts | 345° |
| 2026-05-06 19:22 | 42.79516 | 11.90068 | 27096 ft | 456 kts | 345° |
| 2026-05-06 19:22 | 42.82607 | 11.89137 | 27477 ft | 454 kts | 337° |
| 2026-05-06 19:23 | 42.85544 | 11.87624 | 27871 ft | 449 kts | 328° |
| 2026-05-06 19:23 | 42.88307 | 11.85651 | 28251 ft | 449 kts | 325° |
| 2026-05-06 19:23 | 42.91064 | 11.83620 | 28606 ft | 452 kts | 325° |
| 2026-05-06 19:23 | 42.93842 | 11.81583 | 28982 ft | 455 kts | 325° |
| 2026-05-06 19:24 | 42.96637 | 11.79540 | 29334 ft | 457 kts | 325° |
| 2026-05-06 19:24 | 42.99446 | 11.77485 | 29677 ft | 460 kts | 325° |
| 2026-05-06 19:24 | 43.02274 | 11.75414 | 30021 ft | 462 kts | 325° |
| 2026-05-06 19:24 | 43.05076 | 11.73359 | 30318 ft | 464 kts | 325° |
| 2026-05-06 19:25 | 43.07926 | 11.71262 | 30607 ft | 467 kts | 325° |
| 2026-05-06 19:25 | 43.10788 | 11.69152 | 30896 ft | 469 kts | 324° |
| 2026-05-06 19:25 | 43.13657 | 11.67038 | 31276 ft | 468 kts | 324° |
| 2026-05-06 19:25 | 43.16566 | 11.65019 | 31680 ft | 472 kts | 330° |
| 2026-05-06 19:26 | 43.19706 | 11.63587 | 32070 ft | 480 kts | 340° |
| 2026-05-06 19:26 | 43.23035 | 11.62889 | 32450 ft | 489 kts | 351° |
| 2026-05-06 19:26 | 43.26457 | 11.62965 | 32811 ft | 496 kts | 1° |
| 2026-05-06 19:26 | 43.29820 | 11.63848 | 33160 ft | 503 kts | 12° |
| 2026-05-06 19:27 | 43.33189 | 11.65170 | 33519 ft | 503 kts | 12° |
| 2026-05-06 19:27 | 43.36555 | 11.66486 | 33873 ft | 503 kts | 12° |
| 2026-05-06 19:27 | 43.39918 | 11.67790 | 34197 ft | 503 kts | 11° |
| 2026-05-06 19:27 | 43.43280 | 11.69086 | 34553 ft | 501 kts | 11° |
| 2026-05-06 19:28 | 43.46640 | 11.70382 | 34934 ft | 500 kts | 11° |
| 2026-05-06 19:28 | 43.49973 | 11.71672 | 35302 ft | 498 kts | 11° |
| 2026-05-06 19:28 | 43.53260 | 11.72946 | 35640 ft | 496 kts | 11° |
| 2026-05-06 19:28 | 43.56581 | 11.74236 | 35907 ft | 496 kts | 11° |
| 2026-05-06 19:29 | 43.59892 | 11.75525 | 35978 ft | 494 kts | 11° |
| 2026-05-06 19:29 | 43.66485 | 11.78104 | 35970 ft | 492 kts | 11° |
| 2026-05-06 19:30 | 43.73058 | 11.80705 | 35965 ft | 492 kts | 14° |
| 2026-05-06 19:30 | 43.79244 | 11.84905 | 35966 ft | 501 kts | 32° |
| 2026-05-06 19:31 | 43.84544 | 11.91139 | 35960 ft | 506 kts | 41° |
| 2026-05-06 19:31 | 43.92365 | 12.00976 | 35942 ft | 507 kts | 41° |
| 2026-05-06 19:32 | 43.97593 | 12.07550 | 35926 ft | 507 kts | 41° |
| 2026-05-06 19:32 | 44.02780 | 12.14108 | 35920 ft | 508 kts | 41° |
| 2026-05-06 19:33 | 44.08001 | 12.20725 | 35919 ft | 508 kts | 41° |
| 2026-05-06 19:33 | 44.13218 | 12.27344 | 35946 ft | 507 kts | 41° |
| 2026-05-06 19:34 | 44.18430 | 12.33974 | 35952 ft | 507 kts | 41° |
| 2026-05-06 19:34 | 44.23594 | 12.40564 | 35955 ft | 506 kts | 41° |
| 2026-05-06 19:35 | 44.28780 | 12.47203 | 35955 ft | 506 kts | 41° |
| 2026-05-06 19:35 | 44.33958 | 12.53846 | 35948 ft | 505 kts | 41° |
| 2026-05-06 19:36 | 44.39122 | 12.60491 | 35941 ft | 504 kts | 41° |
| 2026-05-06 19:36 | 44.44247 | 12.67086 | 35933 ft | 504 kts | 41° |
| 2026-05-06 19:37 | 44.49399 | 12.73731 | 35932 ft | 503 kts | 41° |
| 2026-05-06 19:37 | 44.53673 | 12.79267 | 35932 ft | 503 kts | 41° |
| 2026-05-06 19:38 | 44.59667 | 12.87054 | 35929 ft | 503 kts | 41° |
| 2026-05-06 19:38 | 44.64760 | 12.93682 | 35933 ft | 503 kts | 41° |
| 2026-05-06 19:39 | 44.69889 | 13.00364 | 35932 ft | 503 kts | 41° |
| 2026-05-06 19:39 | 44.75007 | 13.07056 | 35932 ft | 502 kts | 41° |
| 2026-05-06 19:40 | 44.80116 | 13.13767 | 35929 ft | 502 kts | 41° |
| 2026-05-06 19:40 | 44.85220 | 13.20481 | 35929 ft | 502 kts | 41° |
| 2026-05-06 19:41 | 44.90281 | 13.27159 | 35936 ft | 502 kts | 41° |
| 2026-05-06 19:41 | 44.95372 | 13.33889 | 35936 ft | 501 kts | 41° |
| 2026-05-06 19:42 | 45.00458 | 13.40633 | 35937 ft | 501 kts | 41° |
| 2026-05-06 19:42 | 45.05512 | 13.47340 | 35947 ft | 501 kts | 41° |
| 2026-05-06 19:43 | 45.10589 | 13.54099 | 35946 ft | 501 kts | 42° |
| 2026-05-06 19:43 | 45.15659 | 13.60882 | 35949 ft | 501 kts | 42° |
| 2026-05-06 19:44 | 45.20725 | 13.67674 | 35950 ft | 501 kts | 42° |
| 2026-05-06 19:44 | 45.25760 | 13.74412 | 35953 ft | 501 kts | 42° |
| 2026-05-06 19:45 | 45.30823 | 13.81220 | 35957 ft | 501 kts | 42° |
| 2026-05-06 19:45 | 45.35867 | 13.88041 | 35966 ft | 501 kts | 42° |
| 2026-05-06 19:46 | 45.40909 | 13.94858 | 35969 ft | 499 kts | 42° |
| 2026-05-06 19:46 | 45.45937 | 14.01676 | 35974 ft | 499 kts | 43° |
| 2026-05-06 19:47 | 45.50920 | 14.08454 | 35974 ft | 498 kts | 43° |
| 2026-05-06 19:47 | 45.55921 | 14.15262 | 35991 ft | 497 kts | 43° |
| 2026-05-06 19:48 | 45.60912 | 14.22081 | 35978 ft | 496 kts | 43° |
| 2026-05-06 19:48 | 45.65880 | 14.28897 | 35978 ft | 495 kts | 43° |
| 2026-05-06 19:49 | 45.70802 | 14.35658 | 35965 ft | 493 kts | 43° |
| 2026-05-06 19:49 | 45.75745 | 14.42465 | 35956 ft | 493 kts | 43° |
| 2026-05-06 19:50 | 45.80677 | 14.49279 | 35946 ft | 493 kts | 43° |
| 2026-05-06 19:50 | 45.85607 | 14.56103 | 35938 ft | 493 kts | 43° |
| 2026-05-06 19:51 | 45.90535 | 14.62940 | 35933 ft | 493 kts | 43° |
| 2026-05-06 19:51 | 45.95418 | 14.69742 | 35940 ft | 492 kts | 43° |
| 2026-05-06 19:52 | 46.00327 | 14.76601 | 35948 ft | 492 kts | 43° |
| 2026-05-06 19:52 | 46.05230 | 14.83456 | 35935 ft | 491 kts | 43° |
| 2026-05-06 19:53 | 46.10121 | 14.90309 | 35944 ft | 491 kts | 43° |
| 2026-05-06 19:53 | 46.14973 | 14.97138 | 35935 ft | 491 kts | 43° |
| 2026-05-06 19:54 | 46.19851 | 15.04018 | 35923 ft | 490 kts | 43° |
| 2026-05-06 19:54 | 46.24721 | 15.10904 | 35920 ft | 490 kts | 43° |
| 2026-05-06 19:55 | 46.29591 | 15.17805 | 35917 ft | 490 kts | 43° |
| 2026-05-06 19:55 | 46.34459 | 15.24712 | 35916 ft | 490 kts | 43° |
| 2026-05-06 19:56 | 46.39295 | 15.31596 | 35914 ft | 491 kts | 43° |
| 2026-05-06 19:56 | 46.44157 | 15.38545 | 35914 ft | 491 kts | 43° |
| 2026-05-06 19:57 | 46.49014 | 15.45516 | 35711 ft | 490 kts | 44° |
| 2026-05-06 19:57 | 46.51487 | 15.48913 | 35007 ft | 489 kts | 38° |
| 2026-05-06 19:57 | 46.54219 | 15.51850 | 34261 ft | 489 kts | 30° |
| 2026-05-06 19:58 | 46.57190 | 15.54232 | 33439 ft | 488 kts | 21° |
| 2026-05-06 19:58 | 46.60313 | 15.56154 | 32537 ft | 488 kts | 19° |
| 2026-05-06 19:58 | 46.63458 | 15.58054 | 31649 ft | 490 kts | 19° |
| 2026-05-06 19:58 | 46.66564 | 15.59944 | 30852 ft | 490 kts | 19° |
| 2026-05-06 19:59 | 46.69689 | 15.61857 | 30246 ft | 485 kts | 19° |
| 2026-05-06 19:59 | 46.72776 | 15.63756 | 29888 ft | 474 kts | 19° |
| 2026-05-06 19:59 | 46.75781 | 15.65612 | 29505 ft | 464 kts | 19° |
| 2026-05-06 19:59 | 46.78726 | 15.67433 | 29054 ft | 457 kts | 20° |
| 2026-05-06 20:00 | 46.81632 | 15.69229 | 28611 ft | 449 kts | 20° |
| 2026-05-06 20:00 | 46.84490 | 15.70990 | 28177 ft | 443 kts | 20° |
| 2026-05-06 20:00 | 46.87311 | 15.72726 | 27743 ft | 438 kts | 20° |
| 2026-05-06 20:00 | 46.90108 | 15.74447 | 27331 ft | 434 kts | 20° |
| 2026-05-06 20:01 | 46.92879 | 15.76149 | 26912 ft | 430 kts | 20° |
| 2026-05-06 20:01 | 46.95627 | 15.77844 | 26511 ft | 427 kts | 20° |
| 2026-05-06 20:01 | 46.98328 | 15.79513 | 26080 ft | 428 kts | 20° |
| 2026-05-06 20:01 | 47.01070 | 15.81210 | 25634 ft | 427 kts | 21° |
| 2026-05-06 20:02 | 47.03802 | 15.82905 | 25192 ft | 425 kts | 21° |
| 2026-05-06 20:02 | 47.06515 | 15.84591 | 24770 ft | 421 kts | 21° |
| 2026-05-06 20:02 | 47.09197 | 15.86261 | 24323 ft | 416 kts | 21° |
| 2026-05-06 20:02 | 47.11845 | 15.87914 | 23902 ft | 411 kts | 21° |
| 2026-05-06 20:03 | 47.14459 | 15.89544 | 23491 ft | 406 kts | 21° |
| 2026-05-06 20:03 | 47.17052 | 15.91158 | 23007 ft | 403 kts | 21° |
| 2026-05-06 20:03 | 47.19620 | 15.92759 | 22522 ft | 399 kts | 21° |
| 2026-05-06 20:03 | 47.22165 | 15.94351 | 22038 ft | 396 kts | 21° |
| 2026-05-06 20:04 | 47.24695 | 15.95938 | 21570 ft | 394 kts | 21° |
| 2026-05-06 20:04 | 47.27169 | 15.97491 | 21104 ft | 391 kts | 21° |
| 2026-05-06 20:04 | 47.29663 | 15.99058 | 20653 ft | 388 kts | 21° |
| 2026-05-06 20:04 | 47.32142 | 16.00612 | 20208 ft | 386 kts | 21° |
| 2026-05-06 20:05 | 47.34604 | 16.02157 | 19760 ft | 384 kts | 21° |
| 2026-05-06 20:05 | 47.37060 | 16.03690 | 19318 ft | 382 kts | 20° |
| 2026-05-06 20:05 | 47.39531 | 16.05080 | 18889 ft | 379 kts | 18° |
| 2026-05-06 20:05 | 47.42021 | 16.06336 | 18468 ft | 377 kts | 16° |
| 2026-05-06 20:06 | 47.44506 | 16.07517 | 18027 ft | 375 kts | 15° |
| 2026-05-06 20:06 | 47.46981 | 16.08679 | 17585 ft | 371 kts | 15° |
| 2026-05-06 20:06 | 47.49435 | 16.09839 | 17137 ft | 369 kts | 16° |
| 2026-05-06 20:06 | 47.51874 | 16.11012 | 16693 ft | 368 kts | 16° |
| 2026-05-06 20:07 | 47.54265 | 16.12182 | 16260 ft | 366 kts | 17° |
| 2026-05-06 20:07 | 47.56670 | 16.13374 | 15886 ft | 362 kts | 17° |
| 2026-05-06 20:07 | 47.59029 | 16.14556 | 15668 ft | 354 kts | 17° |
| 2026-05-06 20:07 | 47.61341 | 16.15719 | 15442 ft | 348 kts | 17° |
| 2026-05-06 20:08 | 47.63609 | 16.16862 | 15213 ft | 342 kts | 17° |
| 2026-05-06 20:08 | 47.65854 | 16.17987 | 14991 ft | 340 kts | 16° |
| 2026-05-06 20:08 | 47.68087 | 16.19102 | 14820 ft | 338 kts | 17° |
| 2026-05-06 20:08 | 47.70315 | 16.20213 | 14804 ft | 338 kts | 16° |
| 2026-05-06 20:09 | 47.72544 | 16.21325 | 14805 ft | 338 kts | 17° |
| 2026-05-06 20:09 | 47.74735 | 16.22422 | 14803 ft | 337 kts | 17° |
| 2026-05-06 20:09 | 47.76956 | 16.23559 | 14799 ft | 337 kts | 20° |
| 2026-05-06 20:09 | 47.78938 | 16.25399 | 14787 ft | 338 kts | 44° |
| 2026-05-06 20:10 | 47.80325 | 16.28183 | 14783 ft | 335 kts | 67° |
| 2026-05-06 20:10 | 47.80954 | 16.31478 | 14786 ft | 330 kts | 88° |
| 2026-05-06 20:10 | 47.80791 | 16.34830 | 14778 ft | 323 kts | 109° |
| 2026-05-06 20:10 | 47.79911 | 16.37836 | 14732 ft | 313 kts | 128° |
| 2026-05-06 20:11 | 47.78474 | 16.40170 | 14400 ft | 303 kts | 148° |
| 2026-05-06 20:11 | 47.76659 | 16.41639 | 14065 ft | 294 kts | 166° |
| 2026-05-06 20:11 | 47.74680 | 16.42166 | 13821 ft | 287 kts | 183° |
| 2026-05-06 20:11 | 47.72745 | 16.41809 | 13795 ft | 284 kts | 196° |
| 2026-05-06 20:12 | 47.70843 | 16.41001 | 13804 ft | 285 kts | 200° |
| 2026-05-06 20:12 | 47.68971 | 16.40042 | 13806 ft | 284 kts | 201° |
| 2026-05-06 20:12 | 47.67116 | 16.39031 | 13806 ft | 284 kts | 202° |
| 2026-05-06 20:12 | 47.65268 | 16.38014 | 13812 ft | 284 kts | 202° |
| 2026-05-06 20:13 | 47.63419 | 16.37000 | 13813 ft | 283 kts | 203° |
| 2026-05-06 20:13 | 47.61713 | 16.35566 | 13814 ft | 282 kts | 219° |
| 2026-05-06 20:13 | 47.60366 | 16.33464 | 13817 ft | 283 kts | 234° |
| 2026-05-06 20:13 | 47.59486 | 16.30847 | 13821 ft | 287 kts | 250° |
| 2026-05-06 20:14 | 47.59169 | 16.27918 | 13820 ft | 291 kts | 266° |
| 2026-05-06 20:14 | 47.59474 | 16.24930 | 13811 ft | 298 kts | 284° |
| 2026-05-06 20:14 | 47.60402 | 16.22199 | 13824 ft | 306 kts | 302° |
| 2026-05-06 20:14 | 47.61927 | 16.19958 | 13819 ft | 314 kts | 321° |
| 2026-05-06 20:15 | 47.63915 | 16.18546 | 13823 ft | 322 kts | 341° |
| 2026-05-06 20:15 | 47.66159 | 16.18212 | 13817 ft | 329 kts | 2° |
| 2026-05-06 20:15 | 47.68397 | 16.18915 | 13599 ft | 330 kts | 14° |
| 2026-05-06 20:15 | 47.70581 | 16.19954 | 13228 ft | 329 kts | 17° |
| 2026-05-06 20:16 | 47.72725 | 16.21110 | 12879 ft | 327 kts | 18° |
| 2026-05-06 20:16 | 47.74850 | 16.22303 | 12781 ft | 326 kts | 19° |
| 2026-05-06 20:16 | 47.76945 | 16.23493 | 12792 ft | 327 kts | 22° |
| 2026-05-06 20:16 | 47.78841 | 16.25348 | 12789 ft | 328 kts | 45° |
| 2026-05-06 20:17 | 47.80153 | 16.28093 | 12788 ft | 326 kts | 68° |
| 2026-05-06 20:17 | 47.80731 | 16.31288 | 12487 ft | 318 kts | 90° |
| 2026-05-06 20:17 | 47.80498 | 16.34496 | 12107 ft | 309 kts | 111° |
| 2026-05-06 20:17 | 47.79548 | 16.37294 | 11822 ft | 299 kts | 132° |
| 2026-05-06 20:18 | 47.78064 | 16.39399 | 11784 ft | 293 kts | 151° |
| 2026-05-06 20:18 | 47.76248 | 16.40673 | 11793 ft | 287 kts | 169° |
| 2026-05-06 20:18 | 47.74299 | 16.41012 | 11799 ft | 280 kts | 187° |
| 2026-05-06 20:18 | 47.72400 | 16.40483 | 11802 ft | 277 kts | 198° |
| 2026-05-06 20:19 | 47.70589 | 16.39637 | 11803 ft | 276 kts | 201° |
| 2026-05-06 20:19 | 47.68780 | 16.38673 | 11808 ft | 276 kts | 202° |
| 2026-05-06 20:19 | 47.66988 | 16.37682 | 11612 ft | 273 kts | 202° |
| 2026-05-06 20:19 | 47.65209 | 16.36701 | 11255 ft | 272 kts | 203° |
| 2026-05-06 20:20 | 47.63457 | 16.35683 | 10908 ft | 269 kts | 209° |
| 2026-05-06 20:20 | 47.61939 | 16.34114 | 10561 ft | 265 kts | 224° |
| 2026-05-06 20:20 | 47.60800 | 16.31982 | 10226 ft | 264 kts | 239° |
| 2026-05-06 20:20 | 47.60139 | 16.29456 | 10045 ft | 266 kts | 255° |
| 2026-05-06 20:21 | 47.60011 | 16.26706 | 10041 ft | 272 kts | 271° |
| 2026-05-06 20:21 | 47.60453 | 16.23963 | 10035 ft | 278 kts | 288° |
| 2026-05-06 20:21 | 47.61479 | 16.21497 | 10034 ft | 286 kts | 307° |
| 2026-05-06 20:21 | 47.63005 | 16.19630 | 10041 ft | 294 kts | 325° |
| 2026-05-06 20:22 | 47.64943 | 16.18552 | 10032 ft | 303 kts | 345° |
| 2026-05-06 20:22 | 47.67064 | 16.18506 | 10027 ft | 310 kts | 6° |
| 2026-05-06 20:22 | 47.69161 | 16.19318 | 10035 ft | 313 kts | 14° |
| 2026-05-06 20:22 | 47.71226 | 16.20343 | 10020 ft | 313 kts | 16° |
| 2026-05-06 20:23 | 47.73273 | 16.21453 | 10026 ft | 313 kts | 18° |
| 2026-05-06 20:23 | 47.75278 | 16.22722 | 10018 ft | 315 kts | 28° |
| 2026-05-06 20:23 | 47.76995 | 16.24740 | 10016 ft | 316 kts | 47° |
| 2026-05-06 20:23 | 47.78254 | 16.27407 | 10027 ft | 316 kts | 60° |
| 2026-05-06 20:24 | 47.79360 | 16.30235 | 10028 ft | 316 kts | 60° |
| 2026-05-06 20:24 | 47.80449 | 16.33020 | 10009 ft | 316 kts | 60° |
| 2026-05-06 20:24 | 47.81555 | 16.35840 | 10008 ft | 315 kts | 60° |
| 2026-05-06 20:24 | 47.82651 | 16.38637 | 10004 ft | 306 kts | 60° |
| 2026-05-06 20:25 | 47.83692 | 16.41306 | 10004 ft | 291 kts | 61° |
| 2026-05-06 20:25 | 47.84687 | 16.43864 | 10008 ft | 283 kts | 60° |
| 2026-05-06 20:25 | 47.85339 | 16.45537 | 10017 ft | 282 kts | 60° |
| 2026-05-06 20:25 | 47.86321 | 16.48056 | 10011 ft | 281 kts | 61° |
| 2026-05-06 20:26 | 47.87298 | 16.50570 | 10008 ft | 281 kts | 61° |
| 2026-05-06 20:26 | 47.88277 | 16.53086 | 10010 ft | 281 kts | 61° |
| 2026-05-06 20:26 | 47.89574 | 16.56421 | 10013 ft | 281 kts | 61° |
| 2026-05-06 20:26 | 47.90551 | 16.58944 | 10005 ft | 282 kts | 61° |
| 2026-05-06 20:27 | 47.91529 | 16.61472 | 10014 ft | 282 kts | 61° |
| 2026-05-06 20:27 | 47.92192 | 16.63184 | 10002 ft | 282 kts | 61° |
| 2026-05-06 20:27 | 47.93489 | 16.66539 | 10001 ft | 283 kts | 61° |
| 2026-05-06 20:27 | 47.94471 | 16.69082 | 10004 ft | 283 kts | 61° |
| 2026-05-06 20:28 | 47.95120 | 16.70765 | 10003 ft | 283 kts | 61° |
| 2026-05-06 20:28 | 47.96103 | 16.73308 | 10006 ft | 283 kts | 61° |
| 2026-05-06 20:28 | 47.97129 | 16.75811 | 9949 ft | 282 kts | 53° |
| 2026-05-06 20:28 | 47.99017 | 16.78417 | 9558 ft | 279 kts | 30° |
| 2026-05-06 20:29 | 48.00182 | 16.79294 | 9333 ft | 277 kts | 18° |
| 2026-05-06 20:29 | 48.02030 | 16.79977 | 9000 ft | 272 kts | 2° |
| 2026-05-06 20:29 | 48.03877 | 16.79939 | 8653 ft | 266 kts | 346° |
| 2026-05-06 20:29 | 48.05634 | 16.79224 | 8314 ft | 259 kts | 331° |
| 2026-05-06 20:30 | 48.07232 | 16.78030 | 7938 ft | 256 kts | 326° |
| 2026-05-06 20:30 | 48.10383 | 16.75591 | 7290 ft | 254 kts | 327° |
| 2026-05-06 20:30 | 48.11947 | 16.74388 | 6956 ft | 253 kts | 327° |
| 2026-05-06 20:31 | 48.13511 | 16.73183 | 6622 ft | 252 kts | 327° |
| 2026-05-06 20:31 | 48.15065 | 16.71984 | 6298 ft | 251 kts | 327° |
| 2026-05-06 20:31 | 48.16605 | 16.70797 | 6049 ft | 245 kts | 327° |
| 2026-05-06 20:31 | 48.18076 | 16.69668 | 6027 ft | 239 kts | 327° |
| 2026-05-06 20:32 | 48.20045 | 16.68150 | 6030 ft | 238 kts | 327° |
| 2026-05-06 20:32 | 48.21017 | 16.67397 | 6029 ft | 237 kts | 327° |
| 2026-05-06 20:32 | 48.22518 | 16.66355 | 6028 ft | 239 kts | 335° |
| 2026-05-06 20:32 | 48.24124 | 16.65644 | 6028 ft | 241 kts | 340° |
| 2026-05-06 20:33 | 48.25734 | 16.64974 | 6023 ft | 240 kts | 340° |
| 2026-05-06 20:33 | 48.27342 | 16.64299 | 6021 ft | 239 kts | 340° |
| 2026-05-06 20:33 | 48.28947 | 16.63625 | 6023 ft | 240 kts | 340° |
| 2026-05-06 20:33 | 48.30574 | 16.63045 | 6012 ft | 243 kts | 353° |
| 2026-05-06 20:34 | 48.32265 | 16.63306 | 6015 ft | 246 kts | 8° |
| 2026-05-06 20:34 | 48.33916 | 16.63858 | 6008 ft | 246 kts | 10° |
| 2026-05-06 20:34 | 48.35582 | 16.64457 | 6008 ft | 246 kts | 11° |
| 2026-05-06 20:34 | 48.37248 | 16.65061 | 6005 ft | 246 kts | 10° |
| 2026-05-06 20:35 | 48.38912 | 16.65669 | 6001 ft | 246 kts | 11° |
| 2026-05-06 20:35 | 48.40579 | 16.66276 | 5997 ft | 246 kts | 11° |
| 2026-05-06 20:35 | 48.42218 | 16.66879 | 5993 ft | 236 kts | 10° |
| 2026-05-06 20:35 | 48.43774 | 16.67459 | 5989 ft | 227 kts | 10° |
| 2026-05-06 20:36 | 48.45301 | 16.68012 | 5989 ft | 224 kts | 6° |
| 2026-05-06 20:36 | 48.46831 | 16.68000 | 5985 ft | 219 kts | 348° |
| 2026-05-06 20:36 | 48.48335 | 16.67659 | 5985 ft | 218 kts | 346° |
| 2026-05-06 20:36 | 48.49835 | 16.67273 | 5986 ft | 219 kts | 346° |
| 2026-05-06 20:37 | 48.51252 | 16.66673 | 5984 ft | 208 kts | 330° |
| 2026-05-06 20:37 | 48.52524 | 16.65695 | 5985 ft | 204 kts | 326° |
| 2026-05-06 20:37 | 48.53762 | 16.64660 | 5985 ft | 203 kts | 326° |
| 2026-05-06 20:37 | 48.54993 | 16.63618 | 5988 ft | 203 kts | 326° |
| 2026-05-06 20:38 | 48.56220 | 16.62573 | 5984 ft | 203 kts | 326° |
| 2026-05-06 20:38 | 48.57444 | 16.61518 | 5984 ft | 203 kts | 325° |
| 2026-05-06 20:38 | 48.58669 | 16.60457 | 5981 ft | 203 kts | 324° |
| 2026-05-06 20:38 | 48.59641 | 16.59024 | 5982 ft | 193 kts | 290° |
| 2026-05-06 20:39 | 48.59909 | 16.57090 | 5988 ft | 188 kts | 269° |
| 2026-05-06 20:39 | 48.59922 | 16.55124 | 5981 ft | 187 kts | 266° |
| 2026-05-06 20:39 | 48.59902 | 16.53161 | 5982 ft | 187 kts | 265° |
| 2026-05-06 20:39 | 48.59650 | 16.51304 | 5957 ft | 182 kts | 238° |
| 2026-05-06 20:40 | 48.58782 | 16.49935 | 5717 ft | 183 kts | 219° |
| 2026-05-06 20:40 | 48.57685 | 16.48979 | 5507 ft | 184 kts | 201° |
| 2026-05-06 20:40 | 48.56441 | 16.48473 | 5274 ft | 186 kts | 197° |
| 2026-05-06 20:40 | 48.55175 | 16.48058 | 5070 ft | 186 kts | 195° |
| 2026-05-06 20:41 | 48.53906 | 16.47655 | 4977 ft | 186 kts | 195° |
| 2026-05-06 20:41 | 48.52641 | 16.47257 | 4980 ft | 186 kts | 195° |
| 2026-05-06 20:41 | 48.51373 | 16.46861 | 4990 ft | 182 kts | 195° |
| 2026-05-06 20:41 | 48.50184 | 16.46493 | 4988 ft | 169 kts | 195° |
| 2026-05-06 20:42 | 48.49042 | 16.46141 | 4979 ft | 166 kts | 195° |
| 2026-05-06 20:42 | 48.47925 | 16.45801 | 4981 ft | 166 kts | 195° |
| 2026-05-06 20:42 | 48.46796 | 16.45466 | 4977 ft | 166 kts | 195° |
| 2026-05-06 20:42 | 48.45662 | 16.45132 | 4984 ft | 166 kts | 195° |
| 2026-05-06 20:43 | 48.44529 | 16.44790 | 4988 ft | 166 kts | 196° |
| 2026-05-06 20:43 | 48.43371 | 16.44679 | 4990 ft | 171 kts | 177° |
| 2026-05-06 20:43 | 48.42196 | 16.45024 | 4992 ft | 172 kts | 172° |
| 2026-05-06 20:43 | 48.41036 | 16.45468 | 4992 ft | 172 kts | 170° |
| 2026-05-06 20:44 | 48.39879 | 16.45945 | 4997 ft | 173 kts | 169° |
| 2026-05-06 20:44 | 48.38717 | 16.46436 | 4993 ft | 174 kts | 169° |
| 2026-05-06 20:44 | 48.37558 | 16.46930 | 5000 ft | 173 kts | 169° |
| 2026-05-06 20:44 | 48.36395 | 16.47426 | 5004 ft | 174 kts | 169° |
| 2026-05-06 20:45 | 48.35227 | 16.47926 | 5004 ft | 174 kts | 169° |
| 2026-05-06 20:45 | 48.34075 | 16.48418 | 4962 ft | 175 kts | 169° |
| 2026-05-06 20:45 | 48.32911 | 16.48916 | 4797 ft | 173 kts | 170° |
| 2026-05-06 20:45 | 48.31758 | 16.49408 | 4592 ft | 171 kts | 170° |
| 2026-05-06 20:46 | 48.30617 | 16.49895 | 4365 ft | 170 kts | 170° |
| 2026-05-06 20:46 | 48.29488 | 16.50377 | 4156 ft | 168 kts | 170° |
| 2026-05-06 20:46 | 48.28372 | 16.50852 | 3936 ft | 166 kts | 171° |
| 2026-05-06 20:46 | 48.27270 | 16.51322 | 3721 ft | 164 kts | 171° |
| 2026-05-06 20:47 | 48.26181 | 16.51786 | 3506 ft | 161 kts | 171° |
| 2026-05-06 20:47 | 48.25109 | 16.52242 | 3298 ft | 159 kts | 171° |
| 2026-05-06 20:47 | 48.24051 | 16.52693 | 3093 ft | 157 kts | 171° |
| 2026-05-06 20:47 | 48.23006 | 16.53137 | 2889 ft | 155 kts | 171° |
| 2026-05-06 20:48 | 48.21984 | 16.53571 | 2686 ft | 154 kts | 171° |
| 2026-05-06 20:48 | 48.20958 | 16.54007 | 2485 ft | 153 kts | 170° |
| 2026-05-06 20:48 | 48.19943 | 16.54438 | 2292 ft | 150 kts | 170° |
| 2026-05-06 20:48 | 48.18947 | 16.54861 | 2094 ft | 148 kts | 169° |
| 2026-05-06 20:49 | 48.17966 | 16.55277 | 1897 ft | 146 kts | 167° |
| 2026-05-06 20:49 | 48.17018 | 16.55681 | 1722 ft | 135 kts | 167° |
| 2026-05-06 20:49 | 48.16147 | 16.56050 | 1523 ft | 126 kts | 167° |
| 2026-05-06 20:49 | 48.15321 | 16.56400 | 1357 ft | 123 kts | 166° |
| 2026-05-06 20:50 | 48.14500 | 16.56747 | 1184 ft | 123 kts | 165° |
| 2026-05-06 20:50 | 48.13680 | 16.57094 | 1013 ft | 122 kts | 166° |
| 2026-05-06 20:50 | 48.12864 | 16.57439 | 832 ft | 121 kts | 167° |
| 2026-05-06 20:50 | 48.12053 | 16.57788 | 665 ft | 122 kts | 165° |
| 2026-05-06 20:51 | 48.11320 | 16.58095 | 618 ft | 87 kts | 164° |
| 2026-05-06 20:51 | 48.10885 | 16.58280 | 613 ft | 51 kts | 165° |
| 2026-05-06 20:51 | 48.10696 | 16.58278 | 611 ft | 22 kts | 195° |
| 2026-05-06 20:51 | 48.10599 | 16.58241 | 611 ft | 10 kts | 195° |
| 2026-05-06 20:52 | 48.10573 | 16.58230 | 611 ft | 0 kts | 198° |
| 2026-05-06 20:52 | 48.10569 | 16.58227 | 611 ft | 2 kts | 199° |
| 2026-05-06 20:52 | 48.10553 | 16.58202 | 620 ft | 4 kts | 246° |
| 2026-05-06 20:52 | 48.10558 | 16.58150 | 611 ft | 6 kts | 299° |
| 2026-05-06 20:53 | 48.10593 | 16.58125 | 614 ft | 5 kts | 339° |
| 2026-05-06 20:53 | 48.10628 | 16.58110 | 611 ft | 6 kts | 346° |
| 2026-05-06 20:53 | 48.10675 | 16.58091 | 624 ft | 8 kts | 343° |
| 2026-05-06 20:53 | 48.10739 | 16.58063 | 617 ft | 14 kts | 343° |
| 2026-05-06 20:54 | 48.10829 | 16.58026 | 611 ft | 13 kts | 344° |
| 2026-05-06 20:54 | 48.10925 | 16.57975 | 612 ft | 16 kts | 328° |
| 2026-05-06 20:54 | 48.11002 | 16.57866 | 618 ft | 15 kts | 314° |
| 2026-05-06 20:54 | 48.11057 | 16.57741 | 615 ft | 14 kts | 295° |
| 2026-05-06 20:55 | 48.11099 | 16.57616 | 622 ft | 13 kts | 296° |
| 2026-05-06 20:55 | 48.11145 | 16.57480 | 622 ft | 16 kts | 303° |
| 2026-05-06 20:55 | 48.11196 | 16.57319 | 614 ft | 24 kts | 295° |
| 2026-05-06 20:55 | 48.11285 | 16.57040 | 620 ft | 30 kts | 295° |
| 2026-05-06 20:56 | 48.11366 | 16.56791 | 619 ft | 26 kts | 295° |
| 2026-05-06 20:56 | 48.11447 | 16.56550 | 620 ft | 24 kts | 296° |
| 2026-05-06 20:56 | 48.11515 | 16.56338 | 613 ft | 22 kts | 296° |
| 2026-05-06 20:56 | 48.11582 | 16.56130 | 627 ft | 23 kts | 296° |
| 2026-05-06 20:57 | 48.11642 | 16.55945 | 616 ft | 18 kts | 296° |
| 2026-05-06 20:57 | 48.11696 | 16.55781 | 621 ft | 17 kts | 296° |
| 2026-05-06 20:57 | 48.11745 | 16.55627 | 615 ft | 17 kts | 296° |
| 2026-05-06 20:57 | 48.11795 | 16.55474 | 623 ft | 14 kts | 296° |
| 2026-05-06 20:58 | 48.11856 | 16.55430 | 616 ft | 10 kts | 8° |
| 2026-05-06 20:58 | 48.11922 | 16.55445 | 611 ft | 9 kts | 16° |
| 2026-05-06 20:58 | 48.11974 | 16.55481 | 624 ft | 8 kts | 25° |
| 2026-05-06 20:58 | 48.12032 | 16.55522 | 611 ft | 8 kts | 25° |
| 2026-05-06 20:59 | 48.12069 | 16.55522 | 617 ft | 5 kts | 320° |
| 2026-05-06 20:59 | 48.12082 | 16.55484 | 611 ft | 4 kts | 297° |
| 2026-05-06 20:59 | 48.12085 | 16.55475 | 624 ft | 0 kts | 297° |
| 2026-05-06 20:59 | 48.12086 | 16.55474 | 623 ft | 0 kts | 297° |